Private Wetterstation Wechselburg
Wetterdaten: Woche 15.08.11 - 21.08.11 (KW33)
Datum Zeit Temp. +2m Bodentemp. Temp.+5cm Temp. Wind Windchill X Diff Temp. Feuchte +2m Feuchte +5cm Sonnenschein Luftdruck Regen Wind Richtung Sonnenschein UV Taupunkt Windchill Windben
15.08.2011 00:00 18,5 C 22,9 C 17,8 C 18,4 C 18,1 C 0,0 C 89 % 95 % 0 % 1008,0 hPa 0,0 l/m 1,5 km/h (1 Bft) W-SW 0,00 h 0,0 UV-I 16,6 C 18,1 C 2,4 km/h (1 Bft)
15.08.2011 01:00 18,4 C 22,7 C 17,8 C 18,2 C 17,9 C 0,0 C 88 % 95 % 0 % 1008,5 hPa 0,0 l/m 2,3 km/h (1 Bft) W-SW 0,00 h 0,0 UV-I 16,3 C 17,9 C 3,3 km/h (1 Bft)
15.08.2011 02:00 18,1 C 22,5 C 17,3 C 17,8 C 17,3 C 0,0 C 86 % 93 % 0 % 1008,8 hPa 0,0 l/m 1,9 km/h (1 Bft) W-SW 0,00 h 0,0 UV-I 15,7 C 17,3 C 3,3 km/h (1 Bft)
15.08.2011 03:00 17,6 C 22,5 C 16,8 C 17,1 C 16,2 C 0,0 C 87 % 93 % 0 % 1009,2 hPa 0,0 l/m 0,9 km/h (0 Bft) W-SW 0,00 h 0,0 UV-I 15,4 C 16,2 C 1,0 km/h (0 Bft)
15.08.2011 04:00 16,9 C 22,6 C 15,9 C 16,2 C 14,8 C 0,0 C 87 % 93 % 0 % 1009,6 hPa 0,0 l/m 0,1 km/h (0 Bft) N 0,00 h 0,0 UV-I 14,8 C 14,8 C 0,0 km/h (0 Bft)
15.08.2011 05:00 16,2 C 22,5 C 15,3 C 15,5 C 14,2 C 0,0 C 89 % 93 % 0 % 1009,8 hPa 0,0 l/m 0,0 km/h (0 Bft) N 0,00 h 0,0 UV-I 14,3 C 14,2 C 0,0 km/h (0 Bft)
15.08.2011 06:00 15,8 C 22,4 C 15,1 C 15,3 C 14,3 C 0,0 C 90 % 94 % 0 % 1010,1 hPa 0,0 l/m 0,0 km/h (0 Bft) N 0,00 h 0,0 UV-I 14,2 C 14,3 C 0,0 km/h (0 Bft)
15.08.2011 07:00 16,1 C 22,2 C 15,4 C 16,6 C 16,3 C 0,7 C 90 % 94 % 19 % 1010,3 hPa 0,0 l/m 0,0 km/h (0 Bft) N 0,08 h 0,0 UV-I 14,5 C 16,3 C 0,0 km/h (0 Bft)
15.08.2011 08:00 17,2 C 21,9 C 16,8 C 22,2 C 22,2 C 5,0 C 90 % 94 % 100 % 1010,8 hPa 0,0 l/m 0,4 km/h (0 Bft) SW 1,00 h 0,0 UV-I 15,5 C 22,2 C 0,5 km/h (0 Bft)
15.08.2011 09:00 17,9 C 21,7 C 17,7 C 20,0 C 20,0 C 2,0 C 85 % 90 % 54 % 1011,3 hPa 0,0 l/m 3,7 km/h (1 Bft) SW 0,17 h 0,0 UV-I 15,4 C 20,0 C 5,2 km/h (1 Bft)
15.08.2011 10:00 18,0 C 21,7 C 17,6 C 19,4 C 19,4 C 1,4 C 83 % 89 % 36 % 1011,8 hPa 0,0 l/m 2,9 km/h (1 Bft) W-SW 0,00 h 0,0 UV-I 15,1 C 19,4 C 3,2 km/h (1 Bft)
15.08.2011 11:00 18,2 C 21,6 C 17,9 C 19,6 C 19,6 C 1,5 C 84 % 89 % 39 % 1012,2 hPa 0,0 l/m 1,5 km/h (1 Bft) W-SW 0,00 h 0,0 UV-I 15,4 C 19,6 C 2,5 km/h (1 Bft)
15.08.2011 12:00 18,4 C 21,6 C 18,3 C 20,6 C 20,6 C 2,2 C 83 % 88 % 57 % 1012,6 hPa 0,0 l/m 2,8 km/h (1 Bft) SW 0,00 h 0,1 UV-I 15,4 C 20,6 C 3,4 km/h (1 Bft)
15.08.2011 13:00 18,7 C 21,6 C 18,5 C 21,2 C 21,2 C 2,5 C 81 % 86 % 66 % 1013,2 hPa 0,0 l/m 2,7 km/h (1 Bft) W-SW 0,17 h 0,0 UV-I 15,4 C 21,2 C 3,7 km/h (1 Bft)
15.08.2011 14:00 18,7 C 21,6 C 18,4 C 19,8 C 19,8 C 1,1 C 80 % 85 % 28 % 1013,9 hPa 0,0 l/m 2,1 km/h (1 Bft) SW 0,00 h 0,0 UV-I 15,3 C 19,8 C 2,5 km/h (1 Bft)
15.08.2011 15:00 18,7 C 21,6 C 18,5 C 21,3 C 21,3 C 2,6 C 81 % 87 % 68 % 1014,2 hPa 0,0 l/m 1,0 km/h (0 Bft) W-SW 0,33 h 0,0 UV-I 15,4 C 21,3 C 1,4 km/h (1 Bft)
15.08.2011 16:00 19,7 C 21,6 C 20,2 C 24,3 C 24,3 C 4,6 C 77 % 81 % 97 % 1014,2 hPa 0,0 l/m 1,9 km/h (1 Bft) W-SW 0,83 h 0,0 UV-I 15,6 C 24,3 C 2,3 km/h (1 Bft)
15.08.2011 17:00 20,5 C 21,6 C 21,0 C 25,4 C 25,4 C 4,9 C 73 % 76 % 100 % 1014,3 hPa 0,0 l/m 1,4 km/h (1 Bft) W-SW 1,00 h 0,0 UV-I 15,4 C 25,4 C 1,8 km/h (1 Bft)
15.08.2011 18:00 20,7 C 21,6 C 20,6 C 23,5 C 23,5 C 2,8 C 69 % 74 % 73 % 1014,7 hPa 0,0 l/m 1,1 km/h (0 Bft) N-NO 0,50 h 0,0 UV-I 14,8 C 23,5 C 1,4 km/h (1 Bft)
15.08.2011 19:00 20,5 C 21,8 C 19,9 C 23,2 C 23,2 C 2,7 C 71 % 76 % 71 % 1014,6 hPa 0,0 l/m 0,1 km/h (0 Bft) N 0,92 h 0,0 UV-I 15,0 C 23,2 C 0,0 km/h (0 Bft)
15.08.2011 20:00 19,2 C 22,0 C 18,2 C 18,7 C 17,6 C 0,1 C 79 % 85 % 2 % 1015,3 hPa 0,0 l/m 0,0 km/h (0 Bft) N 0,08 h 0,0 UV-I 15,4 C 17,6 C 0,0 km/h (0 Bft)
15.08.2011 21:00 17,5 C 22,1 C 16,6 C 16,5 C 14,6 C 0,0 C 84 % 89 % 0 % 1016,0 hPa 0,0 l/m 0,0 km/h (0 Bft) N 0,00 h 0,0 UV-I 14,7 C 14,6 C 0,0 km/h (0 Bft)
15.08.2011 22:00 16,2 C 22,2 C 15,3 C 15,4 C 13,7 C 0,0 C 86 % 90 % 0 % 1016,2 hPa 0,0 l/m 0,0 km/h (0 Bft) N 0,00 h 0,0 UV-I 13,8 C 13,7 C 0,0 km/h (0 Bft)
15.08.2011 23:00 15,4 C 22,1 C 14,6 C 14,6 C 13,0 C 0,0 C 87 % 91 % 0 % 1016,6 hPa 0,0 l/m 0,0 km/h (0 Bft) N 0,00 h 0,0 UV-I 13,3 C 13,0 C 0,0 km/h (0 Bft)
16.08.2011 00:00 14,8 C 22,0 C 13,9 C 13,9 C 12,2 C 0,0 C 87 % 91 % 0 % 1017,1 hPa 0,0 l/m 0,0 km/h (0 Bft) N 0,00 h 0,0 UV-I 12,6 C 12,2 C 0,0 km/h (0 Bft)
16.08.2011 01:00 14,4 C 21,9 C 13,5 C 13,6 C 11,9 C 0,0 C 88 % 91 % 0 % 1017,2 hPa 0,0 l/m 0,0 km/h (0 Bft) N 0,00 h 0,0 UV-I 12,3 C 11,9 C 0,0 km/h (0 Bft)
16.08.2011 02:00 14,1 C 21,8 C 13,5 C 13,6 C 12,3 C 0,0 C 89 % 92 % 0 % 1017,4 hPa 0,0 l/m 0,1 km/h (0 Bft) O 0,00 h 0,0 UV-I 12,3 C 12,3 C 0,4 km/h (0 Bft)
16.08.2011 03:00 14,3 C 21,7 C 13,6 C 13,8 C 12,8 C 0,0 C 89 % 92 % 0 % 1017,8 hPa 0,0 l/m 0,2 km/h (0 Bft) N 0,00 h 0,0 UV-I 12,5 C 12,8 C 0,2 km/h (0 Bft)
16.08.2011 04:00 14,1 C 21,6 C 13,2 C 13,4 C 12,0 C 0,0 C 88 % 92 % 0 % 1017,8 hPa 0,0 l/m 0,0 km/h (0 Bft) N 0,00 h 0,0 UV-I 12,2 C 12,0 C 0,0 km/h (0 Bft)
16.08.2011 05:00 13,9 C 21,5 C 13,0 C 13,1 C 11,7 C 0,0 C 89 % 92 % 0 % 1018,0 hPa 0,0 l/m 0,0 km/h (0 Bft) N 0,00 h 0,0 UV-I 12,1 C 11,7 C 0,0 km/h (0 Bft)
16.08.2011 06:00 13,7 C 21,3 C 12,8 C 13,0 C 11,8 C 0,0 C 89 % 92 % 0 % 1018,4 hPa 0,0 l/m 0,0 km/h (0 Bft) N 0,00 h 0,0 UV-I 11,9 C 11,8 C 0,0 km/h (0 Bft)
16.08.2011 07:00 13,9 C 21,1 C 13,2 C 13,7 C 13,2 C 0,0 C 89 % 93 % 0 % 1018,1 hPa 0,0 l/m 0,0 km/h (0 Bft) N 0,00 h 0,0 UV-I 12,1 C 13,2 C 0,0 km/h (0 Bft)
16.08.2011 08:00 14,7 C 20,9 C 14,1 C 18,7 C 18,7 C 4,0 C 89 % 93 % 88 % 1018,1 hPa 0,0 l/m 0,4 km/h (0 Bft) N 0,75 h 0,1 UV-I 12,9 C 18,7 C 1,0 km/h (0 Bft)
16.08.2011 09:00 15,8 C 20,7 C 15,6 C 21,5 C 21,5 C 5,7 C 88 % 91 % 100 % 1018,0 hPa 0,0 l/m 1,2 km/h (1 Bft) W-SW 1,00 h 0,0 UV-I 13,8 C 21,5 C 2,4 km/h (1 Bft)
16.08.2011 10:00 16,9 C 20,7 C 16,7 C 20,6 C 20,6 C 3,7 C 86 % 88 % 94 % 1018,2 hPa 0,0 l/m 0,9 km/h (0 Bft) N-NO 0,83 h 0,0 UV-I 14,6 C 20,6 C 0,5 km/h (0 Bft)
16.08.2011 11:00 17,9 C 20,6 C 18,0 C 23,4 C 23,4 C 5,5 C 84 % 86 % 100 % 1018,4 hPa 0,0 l/m 0,9 km/h (0 Bft) N-NO 1,00 h 0,0 UV-I 15,2 C 23,4 C 1,6 km/h (1 Bft)
16.08.2011 12:00 19,1 C 20,7 C 19,3 C 25,4 C 25,4 C 6,3 C 80 % 82 % 100 % 1018,2 hPa 0,0 l/m 1,1 km/h (1 Bft) W-SW 1,00 h 0,0 UV-I 15,7 C 25,4 C 1,6 km/h (1 Bft)
16.08.2011 13:00 20,0 C 20,8 C 20,3 C 26,4 C 26,4 C 6,3 C 76 % 77 % 100 % 1017,9 hPa 0,0 l/m 1,3 km/h (1 Bft) NO 1,00 h 0,0 UV-I 15,7 C 26,4 C 2,5 km/h (1 Bft)
16.08.2011 14:00 20,6 C 21,0 C 20,9 C 26,1 C 26,1 C 5,5 C 74 % 74 % 100 % 1017,8 hPa 0,0 l/m 1,5 km/h (1 Bft) O-NO 1,00 h 0,0 UV-I 15,7 C 26,1 C 1,9 km/h (1 Bft)
16.08.2011 15:00 21,0 C 21,1 C 21,7 C 25,8 C 25,8 C 4,8 C 72 % 71 % 95 % 1017,6 hPa 0,0 l/m 1,5 km/h (1 Bft) O-NO 0,75 h 0,0 UV-I 15,7 C 25,8 C 2,4 km/h (1 Bft)
16.08.2011 16:00 20,6 C 21,4 C 20,4 C 22,6 C 22,6 C 2,0 C 73 % 75 % 52 % 1017,4 hPa 0,0 l/m 2,2 km/h (1 Bft) N-NO 0,00 h 0,0 UV-I 15,5 C 22,6 C 3,4 km/h (1 Bft)
16.08.2011 17:00 20,0 C 21,6 C 19,5 C 21,0 C 21,0 C 1,0 C 76 % 80 % 27 % 1016,9 hPa 0,0 l/m 0,5 km/h (0 Bft) N 0,00 h 0,0 UV-I 15,7 C 21,0 C 0,6 km/h (0 Bft)
16.08.2011 18:00 19,5 C 21,7 C 19,1 C 20,0 C 20,0 C 0,5 C 78 % 82 % 14 % 1016,8 hPa 0,0 l/m 0,3 km/h (0 Bft) N 0,00 h 0,0 UV-I 15,6 C 20,0 C 0,1 km/h (0 Bft)
16.08.2011 19:00 19,4 C 21,8 C 18,9 C 20,4 C 20,4 C 1,0 C 79 % 83 % 26 % 1016,9 hPa 0,0 l/m 0,4 km/h (0 Bft) O-NO 0,33 h 0,0 UV-I 15,6 C 20,4 C 0,4 km/h (0 Bft)
16.08.2011 20:00 18,9 C 21,8 C 18,2 C 18,7 C 18,2 C 0,0 C 81 % 85 % 0 % 1017,3 hPa 0,0 l/m 0,0 km/h (0 Bft) N 0,00 h 0,0 UV-I 15,6 C 18,2 C 0,0 km/h (0 Bft)
16.08.2011 21:00 18,3 C 22,0 C 17,6 C 18,0 C 17,5 C 0,0 C 83 % 87 % 0 % 1017,9 hPa 0,0 l/m 0,0 km/h (0 Bft) N 0,00 h 0,0 UV-I 15,5 C 17,5 C 0,2 km/h (0 Bft)
16.08.2011 22:00 17,9 C 22,0 C 17,1 C 17,6 C 17,0 C 0,0 C 83 % 88 % 0 % 1018,0 hPa 0,0 l/m 0,0 km/h (0 Bft) N 0,00 h 0,0 UV-I 15,0 C 17,0 C 0,0 km/h (0 Bft)
16.08.2011 23:00 17,4 C 22,1 C 16,7 C 17,0 C 16,2 C 0,0 C 85 % 88 % 0 % 1018,0 hPa 0,0 l/m 0,0 km/h (0 Bft) N 0,00 h 0,0 UV-I 14,8 C 16,2 C 0,0 km/h (0 Bft)
17.08.2011 00:00 17,1 C 22,1 C 16,5 C 16,8 C 16,1 C 0,0 C 87 % 90 % 0 % 1017,9 hPa 0,0 l/m 0,1 km/h (0 Bft) N 0,00 h 0,0 UV-I 14,9 C 16,1 C 0,0 km/h (0 Bft)
17.08.2011 01:00 16,9 C 22,2 C 16,3 C 16,5 C 15,8 C 0,0 C 88 % 91 % 0 % 1017,6 hPa 0,0 l/m 0,0 km/h (0 Bft) N 0,00 h 0,0 UV-I 15,0 C 15,8 C 0,2 km/h (0 Bft)
17.08.2011 02:00 16,7 C 22,2 C 16,1 C 16,3 C 15,4 C 0,0 C 89 % 91 % 0 % 1017,3 hPa 0,0 l/m 0,0 km/h (0 Bft) N 0,00 h 0,0 UV-I 14,9 C 15,4 C 0,4 km/h (0 Bft)
17.08.2011 03:00 16,2 C 22,2 C 15,5 C 15,6 C 14,4 C 0,0 C 88 % 91 % 0 % 1017,2 hPa 0,0 l/m 0,0 km/h (0 Bft) N 0,00 h 0,0 UV-I 14,2 C 14,4 C 0,0 km/h (0 Bft)
17.08.2011 04:00 15,6 C 22,2 C 14,8 C 15,0 C 13,8 C 0,0 C 89 % 92 % 0 % 1017,0 hPa 0,0 l/m 0,1 km/h (0 Bft) N 0,00 h 0,0 UV-I 13,8 C 13,8 C 0,2 km/h (0 Bft)
17.08.2011 05:00 15,3 C 22,1 C 14,7 C 14,9 C 14,0 C 0,0 C 89 % 92 % 0 % 1016,9 hPa 0,0 l/m 0,0 km/h (0 Bft) N 0,00 h 0,0 UV-I 13,6 C 14,0 C 0,0 km/h (0 Bft)
17.08.2011 06:00 15,2 C 21,9 C 14,5 C 14,8 C 13,7 C 0,0 C 90 % 92 % 0 % 1016,8 hPa 0,0 l/m 0,0 km/h (0 Bft) N 0,00 h 0,0 UV-I 13,6 C 13,7 C 0,0 km/h (0 Bft)
17.08.2011 07:00 15,7 C 21,7 C 14,8 C 17,8 C 17,7 C 2,2 C 89 % 92 % 46 % 1016,6 hPa 0,0 l/m 0,1 km/h (0 Bft) N 0,33 h 0,0 UV-I 13,9 C 17,7 C 0,2 km/h (0 Bft)
17.08.2011 08:00 16,6 C 21,6 C 15,9 C 24,1 C 24,1 C 7,6 C 90 % 93 % 100 % 1016,6 hPa 0,0 l/m 0,4 km/h (0 Bft) N 1,00 h 0,1 UV-I 14,9 C 24,1 C 1,1 km/h (1 Bft)
17.08.2011 09:00 18,2 C 21,4 C 17,9 C 25,8 C 25,8 C 7,6 C 87 % 91 % 100 % 1016,6 hPa 0,0 l/m 0,6 km/h (0 Bft) W-SW 1,00 h 0,0 UV-I 16,0 C 25,8 C 1,6 km/h (1 Bft)
17.08.2011 10:00 19,7 C 21,4 C 19,6 C 24,1 C 24,1 C 4,4 C 81 % 85 % 100 % 1016,8 hPa 0,0 l/m 1,6 km/h (1 Bft) SW 1,00 h 0,0 UV-I 16,3 C 24,1 C 3,4 km/h (1 Bft)
17.08.2011 11:00 20,9 C 21,4 C 21,0 C 24,2 C 24,2 C 3,3 C 69 % 73 % 86 % 1016,7 hPa 0,0 l/m 2,7 km/h (1 Bft) W-SW 0,58 h 0,0 UV-I 15,0 C 24,2 C 3,8 km/h (1 Bft)
17.08.2011 12:00 21,8 C 21,4 C 22,0 C 26,8 C 26,8 C 4,9 C 63 % 66 % 95 % 1016,7 hPa 0,0 l/m 3,1 km/h (1 Bft) W-SW 0,75 h 0,1 UV-I 14,3 C 26,8 C 4,8 km/h (1 Bft)
17.08.2011 13:00 22,2 C 21,5 C 22,0 C 26,5 C 26,5 C 4,3 C 61 % 66 % 97 % 1016,5 hPa 0,0 l/m 1,8 km/h (1 Bft) SW 1,00 h 0,0 UV-I 14,3 C 26,5 C 2,4 km/h (1 Bft)
17.08.2011 14:00 22,8 C 21,6 C 23,8 C 29,1 C 29,1 C 6,3 C 55 % 58 % 100 % 1016,1 hPa 0,0 l/m 2,0 km/h (1 Bft) O 1,00 h 0,0 UV-I 13,3 C 29,1 C 2,3 km/h (1 Bft)
17.08.2011 15:00 23,5 C 21,8 C 26,8 C 29,6 C 29,6 C 6,1 C 53 % 50 % 100 % 1016,0 hPa 0,0 l/m 1,6 km/h (1 Bft) NO 1,00 h 0,0 UV-I 13,3 C 29,6 C 2,0 km/h (1 Bft)
17.08.2011 16:00 23,5 C 22,1 C 25,1 C 29,3 C 29,3 C 5,8 C 52 % 51 % 100 % 1015,8 hPa 0,0 l/m 1,1 km/h (0 Bft) O-SO 1,00 h 0,0 UV-I 13,2 C 29,3 C 1,2 km/h (1 Bft)
17.08.2011 17:00 24,1 C 22,4 C 25,0 C 31,3 C 31,3 C 7,2 C 51 % 50 % 100 % 1016,0 hPa 0,0 l/m 1,2 km/h (1 Bft) O 1,00 h 0,0 UV-I 13,4 C 31,3 C 2,0 km/h (1 Bft)
17.08.2011 18:00 24,2 C 22,5 C 24,2 C 29,8 C 29,8 C 5,6 C 52 % 53 % 100 % 1016,1 hPa 0,0 l/m 0,6 km/h (0 Bft) O-NO 1,00 h 0,0 UV-I 13,6 C 29,8 C 0,9 km/h (0 Bft)
17.08.2011 19:00 23,5 C 22,8 C 22,5 C 26,6 C 26,6 C 3,1 C 57 % 63 % 76 % 1015,7 hPa 0,0 l/m 0,1 km/h (0 Bft) N 1,00 h 0,0 UV-I 14,6 C 26,6 C 0,0 km/h (0 Bft)
17.08.2011 20:00 21,4 C 22,9 C 20,0 C 20,8 C 19,3 C 0,0 C 68 % 74 % 1 % 1015,9 hPa 0,0 l/m 0,0 km/h (0 Bft) N 0,00 h 0,0 UV-I 15,3 C 19,3 C 0,0 km/h (0 Bft)
17.08.2011 21:00 19,2 C 23,1 C 18,1 C 18,2 C 16,1 C 0,0 C 77 % 82 % 0 % 1016,1 hPa 0,0 l/m 0,0 km/h (0 Bft) N 0,00 h 0,0 UV-I 15,1 C 16,1 C 0,0 km/h (0 Bft)
17.08.2011 22:00 17,7 C 23,1 C 17,1 C 16,8 C 15,0 C 0,0 C 81 % 85 % 0 % 1016,0 hPa 0,0 l/m 0,0 km/h (0 Bft) N 0,00 h 0,0 UV-I 14,5 C 15,0 C 0,0 km/h (0 Bft)
17.08.2011 23:00 17,1 C 23,0 C 17,0 C 16,5 C 15,4 C 0,0 C 83 % 85 % 0 % 1015,8 hPa 0,0 l/m 0,1 km/h (0 Bft) N 0,00 h 0,0 UV-I 14,2 C 15,4 C 0,3 km/h (0 Bft)
18.08.2011 00:00 17,1 C 22,9 C 17,0 C 16,7 C 15,9 C 0,0 C 85 % 85 % 0 % 1015,7 hPa 0,0 l/m 0,0 km/h (0 Bft) N 0,00 h 0,0 UV-I 14,5 C 15,9 C 0,0 km/h (0 Bft)
18.08.2011 01:00 16,9 C 22,7 C 17,0 C 16,4 C 15,4 C 0,0 C 85 % 85 % 0 % 1015,4 hPa 0,0 l/m 0,0 km/h (0 Bft) N 0,00 h 0,0 UV-I 14,4 C 15,4 C 0,0 km/h (0 Bft)
18.08.2011 02:00 16,8 C 22,7 C 17,0 C 16,3 C 15,3 C 0,0 C 85 % 85 % 0 % 1015,0 hPa 0,0 l/m 0,0 km/h (0 Bft) N 0,00 h 0,0 UV-I 14,3 C 15,3 C 0,0 km/h (0 Bft)
18.08.2011 03:00 16,5 C 22,6 C 16,0 C 16,0 C 15,0 C 0,0 C 86 % 89 % 0 % 1015,1 hPa 0,0 l/m 0,0 km/h (0 Bft) N 0,00 h 0,0 UV-I 14,2 C 15,0 C 0,0 km/h (0 Bft)
18.08.2011 04:00 16,3 C 22,6 C 15,9 C 15,9 C 15,0 C 0,0 C 87 % 89 % 0 % 1015,0 hPa 0,0 l/m 0,0 km/h (0 Bft) N 0,00 h 0,0 UV-I 14,1 C 15,0 C 0,0 km/h (0 Bft)
18.08.2011 05:00 16,3 C 22,5 C 15,7 C 15,9 C 15,2 C 0,0 C 88 % 90 % 0 % 1014,8 hPa 0,0 l/m 0,1 km/h (0 Bft) N 0,00 h 0,0 UV-I 14,3 C 15,2 C 0,4 km/h (0 Bft)
18.08.2011 06:00 16,3 C 22,5 C 15,6 C 16,0 C 15,3 C 0,0 C 89 % 91 % 0 % 1015,0 hPa 0,0 l/m 0,0 km/h (0 Bft) N 0,00 h 0,0 UV-I 14,5 C 15,3 C 0,0 km/h (0 Bft)
18.08.2011 07:00 16,6 C 22,3 C 15,6 C 17,9 C 17,8 C 1,4 C 89 % 91 % 29 % 1015,2 hPa 0,0 l/m 0,0 km/h (0 Bft) N 0,25 h 0,0 UV-I 14,8 C 17,8 C 0,2 km/h (0 Bft)
18.08.2011 08:00 17,4 C 22,0 C 15,6 C 26,1 C 26,1 C 8,6 C 88 % 91 % 100 % 1015,4 hPa 0,0 l/m 0,2 km/h (0 Bft) SW 1,00 h 0,1 UV-I 15,5 C 26,1 C 0,5 km/h (0 Bft)
18.08.2011 09:00 19,1 C 21,8 C 16,3 C 27,1 C 27,1 C 8,0 C 82 % 90 % 100 % 1015,1 hPa 0,0 l/m 0,2 km/h (0 Bft) N 1,00 h 0,0 UV-I 16,0 C 27,1 C 0,3 km/h (0 Bft)
18.08.2011 10:00 21,0 C 21,9 C 21,2 C 24,4 C 24,4 C 3,4 C 76 % 79 % 87 % 1015,0 hPa 0,0 l/m 0,8 km/h (0 Bft) S 0,67 h 0,0 UV-I 16,6 C 24,4 C 2,1 km/h (1 Bft)
18.08.2011 11:00 22,9 C 21,9 C 22,8 C 25,4 C 25,4 C 2,5 C 70 % 72 % 65 % 1015,0 hPa 0,0 l/m 1,2 km/h (1 Bft) NW 0,00 h 0,0 UV-I 17,1 C 25,4 C 1,6 km/h (1 Bft)
18.08.2011 12:00 24,4 C 21,9 C 24,7 C 30,4 C 30,4 C 5,9 C 66 % 69 % 94 % 1015,0 hPa 0,0 l/m 2,2 km/h (1 Bft) W-SW 0,75 h 0,3 UV-I 17,6 C 30,4 C 4,5 km/h (1 Bft)
18.08.2011 13:00 25,7 C 21,9 C 26,3 C 33,8 C 33,8 C 8,1 C 61 % 63 % 100 % 1014,7 hPa 0,0 l/m 1,9 km/h (1 Bft) O-SO 1,00 h 0,0 UV-I 17,6 C 33,8 C 2,8 km/h (1 Bft)
18.08.2011 14:00 26,8 C 22,3 C 28,8 C 34,2 C 34,2 C 7,3 C 57 % 57 % 100 % 1014,2 hPa 0,0 l/m 2,3 km/h (1 Bft) SW 1,00 h 0,1 UV-I 17,5 C 34,2 C 3,8 km/h (1 Bft)
18.08.2011 15:00 27,6 C 22,6 C 31,2 C 35,6 C 35,6 C 8,1 C 56 % 49 % 100 % 1013,8 hPa 0,0 l/m 1,4 km/h (1 Bft) O-NO 1,00 h 0,1 UV-I 18,0 C 35,6 C 1,9 km/h (1 Bft)
18.08.2011 16:00 27,3 C 23,1 C 27,6 C 30,5 C 30,5 C 3,2 C 59 % 61 % 72 % 1013,3 hPa 0,0 l/m 0,8 km/h (0 Bft) O-NO 0,42 h 0,0 UV-I 18,5 C 30,5 C 1,4 km/h (1 Bft)
18.08.2011 17:00 26,8 C 23,5 C 26,5 C 30,4 C 30,4 C 3,6 C 64 % 68 % 86 % 1012,6 hPa 0,0 l/m 0,6 km/h (0 Bft) O 0,58 h 0,0 UV-I 19,4 C 30,4 C 0,4 km/h (0 Bft)
18.08.2011 18:00 26,7 C 23,8 C 26,3 C 29,9 C 29,9 C 3,2 C 64 % 67 % 83 % 1011,9 hPa 0,0 l/m 1,3 km/h (1 Bft) O-NO 0,75 h 0,0 UV-I 19,3 C 29,9 C 3,0 km/h (1 Bft)
18.08.2011 19:00 25,7 C 24,0 C 24,7 C 26,0 C 25,8 C 0,4 C 67 % 72 % 10 % 1011,5 hPa 0,0 l/m 0,7 km/h (0 Bft) O-SO 0,08 h 0,0 UV-I 19,0 C 25,8 C 1,3 km/h (1 Bft)
18.08.2011 20:00 24,3 C 24,2 C 23,2 C 24,0 C 23,4 C 0,0 C 70 % 75 % 0 % 1011,6 hPa 2,7 l/m 1,2 km/h (1 Bft) O-SO 0,00 h 0,0 UV-I 18,4 C 23,4 C 2,4 km/h (1 Bft)
18.08.2011 21:00 20,9 C 24,6 C 21,8 C 20,2 C 18,8 C 0,0 C 83 % 80 % 0 % 1011,9 hPa 2,7 l/m 0,6 km/h (0 Bft) N 0,00 h 0,0 UV-I 17,8 C 18,8 C 1,8 km/h (1 Bft)
18.08.2011 22:00 19,8 C 24,6 C 19,0 C 19,3 C 18,3 C 0,0 C 88 % 93 % 0 % 1011,3 hPa 0,0 l/m 0,0 km/h (0 Bft) N 0,00 h 0,0 UV-I 17,7 C 18,3 C 0,0 km/h (0 Bft)
18.08.2011 23:00 19,3 C 24,4 C 18,8 C 18,9 C 18,0 C 0,0 C 89 % 93 % 0 % 1010,9 hPa 0,0 l/m 0,0 km/h (0 Bft) N 0,00 h 0,0 UV-I 17,4 C 18,0 C 0,0 km/h (0 Bft)
19.08.2011 00:00 19,1 C 24,3 C 18,4 C 18,6 C 17,7 C 0,0 C 90 % 94 % 0 % 1010,4 hPa 0,0 l/m 0,0 km/h (0 Bft) N 0,00 h 0,0 UV-I 17,4 C 17,7 C 0,0 km/h (0 Bft)
19.08.2011 01:00 18,7 C 24,2 C 18,4 C 18,2 C 17,2 C 0,0 C 90 % 94 % 0 % 1010,2 hPa 0,0 l/m 0,0 km/h (0 Bft) N 0,00 h 0,0 UV-I 17,0 C 17,2 C 0,0 km/h (0 Bft)
19.08.2011 02:00 18,4 C 24,0 C 18,3 C 18,1 C 17,3 C 0,0 C 90 % 94 % 0 % 1009,9 hPa 0,0 l/m 0,4 km/h (0 Bft) S 0,00 h 0,0 UV-I 16,8 C 17,3 C 1,9 km/h (1 Bft)
19.08.2011 03:00 18,8 C 23,9 C 17,7 C 18,5 C 17,9 C 0,0 C 90 % 95 % 0 % 1010,6 hPa 0,0 l/m 0,7 km/h (0 Bft) N 0,00 h 0,0 UV-I 17,2 C 17,9 C 0,7 km/h (0 Bft)
19.08.2011 04:00 18,7 C 23,8 C 18,0 C 18,4 C 17,8 C 0,0 C 91 % 95 % 0 % 1011,1 hPa 2,7 l/m 0,3 km/h (0 Bft) N 0,00 h 0,0 UV-I 17,1 C 17,8 C 0,2 km/h (0 Bft)
19.08.2011 05:00 18,4 C 23,8 C 17,9 C 18,0 C 17,4 C 0,0 C 91 % 95 % 0 % 1009,6 hPa 0,0 l/m 0,4 km/h (0 Bft) N-NO 0,00 h 0,0 UV-I 16,8 C 17,4 C 0,7 km/h (0 Bft)
19.08.2011 06:00 18,2 C 23,7 C 17,9 C 17,8 C 17,0 C 0,0 C 90 % 95 % 0 % 1009,1 hPa 0,0 l/m 0,0 km/h (0 Bft) N 0,00 h 0,0 UV-I 16,6 C 17,0 C 0,0 km/h (0 Bft)
19.08.2011 07:00 18,4 C 23,6 C 17,9 C 18,9 C 18,8 C 0,5 C 91 % 95 % 14 % 1008,6 hPa 0,0 l/m 0,0 km/h (0 Bft) N 0,00 h 0,0 UV-I 16,9 C 18,8 C 0,0 km/h (0 Bft)
19.08.2011 08:00 19,1 C 23,4 C 17,9 C 19,6 C 19,6 C 0,5 C 91 % 95 % 13 % 1009,1 hPa 0,0 l/m 1,7 km/h (1 Bft) S 0,00 h 0,0 UV-I 17,7 C 19,6 C 4,1 km/h (1 Bft)
19.08.2011 09:00 20,4 C 23,1 C 17,9 C 20,9 C 20,9 C 0,5 C 89 % 95 % 13 % 1010,4 hPa 0,0 l/m 3,5 km/h (1 Bft) S 0,00 h 0,0 UV-I 18,4 C 20,9 C 7,2 km/h (2 Bft)
19.08.2011 10:00 21,3 C 23,0 C 17,9 C 23,4 C 23,4 C 2,1 C 87 % 95 % 54 % 1011,3 hPa 0,0 l/m 3,3 km/h (1 Bft) W-SW 0,00 h 0,1 UV-I 19,0 C 23,4 C 4,5 km/h (1 Bft)
19.08.2011 11:00 22,7 C 23,0 C 17,9 C 25,7 C 25,7 C 3,0 C 83 % 95 % 79 % 1010,9 hPa 0,0 l/m 3,7 km/h (1 Bft) S 0,17 h 0,1 UV-I 19,6 C 25,7 C 6,7 km/h (2 Bft)
19.08.2011 12:00 23,3 C 23,0 C 20,9 C 26,3 C 26,3 C 3,0 C 76 % 85 % 72 % 1010,4 hPa 0,0 l/m 6,3 km/h (2 Bft) W-SW 0,42 h 0,1 UV-I 18,7 C 26,3 C 12,3 km/h (3 Bft)
19.08.2011 13:00 20,3 C 23,4 C 19,5 C 20,2 C 19,8 C 0,1 C 82 % 86 % 2 % 1011,2 hPa 11,0 l/m 6,2 km/h (2 Bft) W-SW 0,00 h 0,0 UV-I 17,0 C 19,8 C 8,1 km/h (2 Bft)
19.08.2011 14:00 18,8 C 23,6 C 18,1 C 18,8 C 18,6 C 0,2 C 90 % 95 % 5 % 1012,1 hPa 1,4 l/m 4,8 km/h (1 Bft) SW 0,00 h 0,0 UV-I 17,0 C 18,6 C 6,1 km/h (2 Bft)
19.08.2011 15:00 18,7 C 23,5 C 18,2 C 19,9 C 19,9 C 1,2 C 90 % 95 % 33 % 1012,8 hPa 0,0 l/m 2,5 km/h (1 Bft) O-NO 0,00 h 0,0 UV-I 17,0 C 19,9 C 3,1 km/h (1 Bft)
19.08.2011 16:00 19,5 C 23,3 C 19,4 C 23,0 C 23,0 C 3,5 C 90 % 95 % 89 % 1013,2 hPa 0,0 l/m 3,7 km/h (1 Bft) SW 0,50 h 0,0 UV-I 17,9 C 23,0 C 6,3 km/h (2 Bft)
19.08.2011 17:00 20,8 C 23,0 C 20,9 C 24,0 C 24,0 C 3,1 C 82 % 93 % 79 % 1013,4 hPa 0,0 l/m 8,8 km/h (2 Bft) W 0,50 h 0,0 UV-I 17,7 C 24,0 C 10,0 km/h (2 Bft)
19.08.2011 18:00 21,0 C 23,0 C 20,8 C 23,2 C 23,2 C 2,3 C 70 % 76 % 60 % 1014,5 hPa 0,0 l/m 7,9 km/h (2 Bft) W-SW 0,33 h 0,0 UV-I 15,3 C 23,2 C 10,0 km/h (2 Bft)
19.08.2011 19:00 20,4 C 22,9 C 19,8 C 21,1 C 21,1 C 0,7 C 67 % 71 % 18 % 1015,5 hPa 0,0 l/m 6,9 km/h (2 Bft) N-NO 0,00 h 0,0 UV-I 14,2 C 21,1 C 9,8 km/h (2 Bft)
19.08.2011 20:00 19,0 C 22,8 C 18,0 C 18,5 C 17,5 C 0,0 C 67 % 71 % 0 % 1016,8 hPa 0,0 l/m 5,0 km/h (1 Bft) W-SW 0,00 h 0,0 UV-I 12,6 C 17,5 C 5,7 km/h (1 Bft)
19.08.2011 21:00 17,3 C 22,8 C 15,8 C 16,4 C 14,6 C 0,0 C 73 % 79 % 0 % 1017,8 hPa 0,0 l/m 0,6 km/h (0 Bft) SW 0,00 h 0,0 UV-I 12,5 C 14,6 C 0,5 km/h (0 Bft)
19.08.2011 22:00 16,0 C 22,8 C 14,5 C 15,0 C 12,9 C 0,0 C 79 % 85 % 0 % 1018,3 hPa 0,0 l/m 0,2 km/h (0 Bft) N 0,00 h 0,0 UV-I 12,3 C 12,9 C 0,3 km/h (0 Bft)
19.08.2011 23:00 15,0 C 22,8 C 13,7 C 14,0 C 12,0 C 0,0 C 82 % 88 % 0 % 1018,9 hPa 0,0 l/m 0,2 km/h (0 Bft) N 0,00 h 0,0 UV-I 12,0 C 12,0 C 0,2 km/h (0 Bft)
20.08.2011 00:00 14,5 C 22,7 C 13,3 C 13,6 C 11,7 C 0,0 C 84 % 89 % 0 % 1019,4 hPa 0,0 l/m 0,0 km/h (0 Bft) N 0,00 h 0,0 UV-I 11,9 C 11,7 C 0,0 km/h (0 Bft)
20.08.2011 01:00 14,2 C 22,5 C 12,9 C 13,2 C 11,1 C 0,0 C 85 % 90 % 0 % 1020,0 hPa 0,0 l/m 0,0 km/h (0 Bft) N 0,00 h 0,0 UV-I 11,7 C 11,1 C 0,0 km/h (0 Bft)
20.08.2011 02:00 13,5 C 22,4 C 12,4 C 12,6 C 10,7 C 0,0 C 86 % 90 % 0 % 1020,4 hPa 0,0 l/m 0,0 km/h (0 Bft) N 0,00 h 0,0 UV-I 11,2 C 10,7 C 0,2 km/h (0 Bft)
20.08.2011 03:00 13,0 C 22,1 C 11,9 C 12,0 C 10,0 C 0,0 C 86 % 91 % 0 % 1020,5 hPa 0,0 l/m 0,0 km/h (0 Bft) N 0,00 h 0,0 UV-I 10,7 C 10,0 C 0,0 km/h (0 Bft)
20.08.2011 04:00 12,6 C 21,8 C 11,5 C 11,6 C 9,4 C 0,0 C 86 % 91 % 0 % 1020,8 hPa 0,0 l/m 0,0 km/h (0 Bft) N 0,00 h 0,0 UV-I 10,4 C 9,4 C 0,0 km/h (0 Bft)
20.08.2011 05:00 12,1 C 21,8 C 11,1 C 11,1 C 9,1 C 0,0 C 87 % 91 % 0 % 1021,2 hPa 0,0 l/m 0,0 km/h (0 Bft) N 0,00 h 0,0 UV-I 9,9 C 9,1 C 0,0 km/h (0 Bft)
20.08.2011 06:00 12,1 C 21,6 C 10,8 C 11,0 C 9,0 C 0,0 C 87 % 91 % 0 % 1021,7 hPa 0,0 l/m 0,0 km/h (0 Bft) N 0,00 h 0,0 UV-I 9,9 C 9,0 C 0,0 km/h (0 Bft)
20.08.2011 07:00 12,8 C 21,2 C 11,5 C 15,5 C 15,3 C 2,8 C 87 % 92 % 62 % 1022,1 hPa 0,0 l/m 0,0 km/h (0 Bft) N 0,58 h 0,0 UV-I 10,6 C 15,3 C 0,0 km/h (0 Bft)
20.08.2011 08:00 14,0 C 20,9 C 13,0 C 21,4 C 21,4 C 7,4 C 87 % 93 % 100 % 1022,6 hPa 0,0 l/m 0,3 km/h (0 Bft) S 1,00 h 0,1 UV-I 11,9 C 21,4 C 1,1 km/h (1 Bft)
20.08.2011 09:00 15,6 C 20,8 C 15,2 C 20,0 C 20,0 C 4,4 C 83 % 88 % 74 % 1022,9 hPa 0,0 l/m 1,5 km/h (1 Bft) W-SW 0,58 h 0,0 UV-I 12,7 C 20,0 C 2,7 km/h (1 Bft)
20.08.2011 10:00 16,8 C 20,7 C 17,0 C 18,5 C 18,5 C 1,7 C 76 % 79 % 45 % 1022,9 hPa 0,0 l/m 3,5 km/h (1 Bft) W-SW 0,00 h 0,0 UV-I 12,5 C 18,5 C 7,1 km/h (2 Bft)
20.08.2011 11:00 18,1 C 20,7 C 17,9 C 20,3 C 20,3 C 2,2 C 70 % 74 % 57 % 1023,0 hPa 0,0 l/m 3,7 km/h (1 Bft) S-SW 0,00 h 0,1 UV-I 12,4 C 20,3 C 6,2 km/h (2 Bft)
20.08.2011 12:00 19,1 C 20,7 C 19,4 C 23,2 C 23,2 C 4,1 C 63 % 65 % 86 % 1022,9 hPa 0,0 l/m 5,5 km/h (1 Bft) W-SW 0,58 h 0,2 UV-I 11,8 C 23,2 C 9,1 km/h (2 Bft)
20.08.2011 13:00 20,0 C 20,7 C 21,0 C 25,6 C 25,6 C 5,6 C 60 % 61 % 100 % 1022,7 hPa 0,0 l/m 4,8 km/h (1 Bft) S-SO 1,00 h 0,0 UV-I 12,0 C 25,6 C 6,4 km/h (2 Bft)
20.08.2011 14:00 21,1 C 20,8 C 23,7 C 27,4 C 27,4 C 6,3 C 58 % 56 % 100 % 1022,4 hPa 0,0 l/m 3,7 km/h (1 Bft) W-SW 1,00 h 0,0 UV-I 12,4 C 27,4 C 5,1 km/h (1 Bft)
20.08.2011 15:00 21,9 C 21,0 C 27,5 C 27,8 C 27,8 C 5,9 C 54 % 47 % 100 % 1022,0 hPa 0,0 l/m 4,2 km/h (1 Bft) W 1,00 h 0,0 UV-I 12,2 C 27,8 C 5,7 km/h (1 Bft)
20.08.2011 16:00 22,5 C 21,4 C 26,0 C 28,4 C 28,4 C 5,8 C 52 % 47 % 100 % 1021,7 hPa 0,0 l/m 3,6 km/h (1 Bft) SW 1,00 h 0,0 UV-I 12,1 C 28,4 C 5,2 km/h (1 Bft)
20.08.2011 17:00 23,1 C 21,5 C 25,0 C 29,2 C 29,2 C 6,1 C 50 % 48 % 100 % 1021,4 hPa 0,0 l/m 2,2 km/h (1 Bft) W-SW 1,00 h 0,0 UV-I 12,0 C 29,2 C 3,0 km/h (1 Bft)
20.08.2011 18:00 23,2 C 21,5 C 23,6 C 29,0 C 29,0 C 5,8 C 53 % 53 % 100 % 1021,2 hPa 0,0 l/m 0,7 km/h (0 Bft) N 1,00 h 0,0 UV-I 13,1 C 29,0 C 0,6 km/h (0 Bft)
20.08.2011 19:00 22,1 C 21,5 C 21,3 C 25,3 C 25,3 C 3,1 C 60 % 64 % 76 % 1021,1 hPa 0,0 l/m 0,2 km/h (0 Bft) N 1,00 h 0,0 UV-I 13,9 C 25,3 C 0,1 km/h (0 Bft)
20.08.2011 20:00 20,1 C 21,5 C 18,8 C 19,5 C 18,2 C 0,0 C 69 % 74 % 0 % 1021,0 hPa 0,0 l/m 0,1 km/h (0 Bft) N 0,00 h 0,0 UV-I 14,1 C 18,2 C 0,0 km/h (0 Bft)
20.08.2011 21:00 18,1 C 21,5 C 17,1 C 17,1 C 15,1 C 0,0 C 78 % 83 % 0 % 1021,4 hPa 0,0 l/m 0,0 km/h (0 Bft) N 0,00 h 0,0 UV-I 14,3 C 15,1 C 0,0 km/h (0 Bft)
20.08.2011 22:00 16,8 C 21,5 C 15,9 C 15,9 C 14,0 C 0,0 C 82 % 86 % 0 % 1021,3 hPa 0,0 l/m 0,0 km/h (0 Bft) N 0,00 h 0,0 UV-I 13,8 C 14,0 C 0,0 km/h (0 Bft)
20.08.2011 23:00 16,0 C 21,5 C 15,1 C 15,1 C 13,2 C 0,0 C 84 % 88 % 0 % 1020,9 hPa 0,0 l/m 0,0 km/h (0 Bft) N 0,00 h 0,0 UV-I 13,3 C 13,2 C 0,0 km/h (0 Bft)
21.08.2011 00:00 15,2 C 21,5 C 14,2 C 14,3 C 12,6 C 0,0 C 85 % 89 % 0 % 1020,7 hPa 0,0 l/m 0,0 km/h (0 Bft) N 0,00 h 0,0 UV-I 12,7 C 12,6 C 0,0 km/h (0 Bft)
21.08.2011 01:00 14,6 C 21,5 C 13,7 C 13,7 C 11,9 C 0,0 C 85 % 89 % 0 % 1020,6 hPa 0,0 l/m 0,0 km/h (0 Bft) N 0,00 h 0,0 UV-I 12,1 C 11,9 C 0,0 km/h (0 Bft)
21.08.2011 02:00 14,1 C 21,5 C 13,1 C 13,2 C 11,4 C 0,0 C 86 % 90 % 0 % 1020,2 hPa 0,0 l/m 0,0 km/h (0 Bft) N 0,00 h 0,0 UV-I 11,7 C 11,4 C 0,0 km/h (0 Bft)
21.08.2011 03:00 13,7 C 21,5 C 12,7 C 12,8 C 11,1 C 0,0 C 86 % 90 % 0 % 1019,9 hPa 0,0 l/m 0,0 km/h (0 Bft) N 0,00 h 0,0 UV-I 11,4 C 11,1 C 0,0 km/h (0 Bft)
21.08.2011 04:00 13,3 C 21,5 C 12,3 C 12,4 C 10,6 C 0,0 C 86 % 90 % 0 % 1020,0 hPa 0,0 l/m 0,0 km/h (0 Bft) N 0,00 h 0,0 UV-I 11,1 C 10,6 C 0,0 km/h (0 Bft)
21.08.2011 05:00 12,9 C 21,5 C 12,0 C 12,0 C 10,3 C 0,0 C 87 % 90 % 0 % 1019,5 hPa 0,0 l/m 0,0 km/h (0 Bft) N 0,00 h 0,0 UV-I 10,7 C 10,3 C 0,0 km/h (0 Bft)
21.08.2011 06:00 13,0 C 21,7 C 12,0 C 12,1 C 10,5 C 0,0 C 87 % 91 % 0 % 1019,5 hPa 0,0 l/m 0,0 km/h (0 Bft) N 0,00 h 0,0 UV-I 10,8 C 10,5 C 0,0 km/h (0 Bft)
21.08.2011 07:00 13,6 C 21,7 C 12,4 C 16,9 C 16,8 C 3,4 C 86 % 91 % 68 % 1019,1 hPa 0,0 l/m 0,0 km/h (0 Bft) N 0,58 h 0,0 UV-I 11,3 C 16,8 C 0,0 km/h (0 Bft)
21.08.2011 08:00 14,9 C 21,7 C 14,2 C 22,7 C 22,7 C 7,8 C 87 % 92 % 100 % 1019,4 hPa 0,0 l/m 0,1 km/h (0 Bft) N 1,00 h 0,1 UV-I 12,7 C 22,7 C 0,2 km/h (0 Bft)
21.08.2011 09:00 17,0 C 21,4 C 17,3 C 24,5 C 24,5 C 7,5 C 86 % 90 % 100 % 1018,9 hPa 0,0 l/m 0,9 km/h (0 Bft) SW 1,00 h 0,0 UV-I 14,6 C 24,5 C 1,6 km/h (1 Bft)
21.08.2011 10:00 19,4 C 21,0 C 19,5 C 26,0 C 26,0 C 6,6 C 81 % 85 % 100 % 1018,7 hPa 0,0 l/m 0,5 km/h (0 Bft) S 1,00 h 0,0 UV-I 16,1 C 26,0 C 1,1 km/h (1 Bft)
21.08.2011 11:00 21,5 C 21,1 C 21,4 C 27,3 C 27,3 C 5,8 C 78 % 83 % 100 % 1018,6 hPa 0,0 l/m 1,6 km/h (1 Bft) W 1,00 h 0,0 UV-I 17,5 C 27,3 C 3,4 km/h (1 Bft)
21.08.2011 12:00 23,1 C 21,2 C 23,1 C 28,4 C 28,4 C 5,3 C 74 % 77 % 100 % 1018,3 hPa 0,0 l/m 1,9 km/h (1 Bft) SW 1,00 h 0,0 UV-I 18,1 C 28,4 C 2,5 km/h (1 Bft)
21.08.2011 13:00 24,0 C 21,4 C 24,7 C 30,7 C 30,7 C 6,7 C 71 % 72 % 100 % 1017,5 hPa 0,0 l/m 1,8 km/h (1 Bft) W-SW 1,00 h 0,1 UV-I 18,3 C 30,7 C 2,5 km/h (1 Bft)
21.08.2011 14:00 24,9 C 21,7 C 25,6 C 31,6 C 31,6 C 6,6 C 69 % 70 % 100 % 1017,2 hPa 0,0 l/m 1,3 km/h (1 Bft) W-SW 1,00 h 0,0 UV-I 18,8 C 31,6 C 2,3 km/h (1 Bft)
21.08.2011 15:00 24,8 C 22,1 C 24,7 C 28,9 C 28,9 C 4,0 C 69 % 74 % 96 % 1016,8 hPa 0,0 l/m 0,3 km/h (0 Bft) W-SW 0,92 h 0,0 UV-I 18,8 C 28,9 C 0,6 km/h (0 Bft)
21.08.2011 16:00 24,6 C 22,4 C 23,8 C 27,5 C 27,5 C 2,9 C 73 % 80 % 74 % 1016,5 hPa 0,0 l/m 0,1 km/h (0 Bft) N 0,42 h 0,0 UV-I 19,5 C 27,5 C 0,2 km/h (0 Bft)
21.08.2011 17:00 24,0 C 22,6 C 23,5 C 25,7 C 25,7 C 1,7 C 79 % 83 % 45 % 1014,8 hPa 0,0 l/m 0,2 km/h (0 Bft) N 0,00 h 0,0 UV-I 20,1 C 25,7 C 0,4 km/h (0 Bft)
21.08.2011 18:00 24,8 C 22,8 C 23,9 C 30,4 C 30,4 C 5,6 C 76 % 81 % 97 % 1013,7 hPa 0,0 l/m 1,0 km/h (0 Bft) N-NO 0,92 h 0,0 UV-I 20,3 C 30,4 C 1,5 km/h (1 Bft)
21.08.2011 19:00 25,0 C 22,9 C 25,1 C 28,5 C 28,5 C 3,5 C 74 % 76 % 82 % 1013,2 hPa 0,0 l/m 0,1 km/h (0 Bft) N 1,00 h 0,0 UV-I 20,1 C 28,5 C 0,3 km/h (0 Bft)
21.08.2011 20:00 23,2 C 23,2 C 25,1 C 22,9 C 22,1 C 0,0 C 79 % 76 % 1 % 1013,3 hPa 0,0 l/m 0,0 km/h (0 Bft) N 0,08 h 0,0 UV-I 19,3 C 22,1 C 0,0 km/h (0 Bft)
21.08.2011 21:00 21,4 C 23,4 C 23,6 C 20,7 C 19,4 C 0,0 C 83 % 80 % 0 % 1013,4 hPa 0,0 l/m 0,0 km/h (0 Bft) N 0,00 h 0,0 UV-I 18,4 C 19,4 C 0,0 km/h (0 Bft)
21.08.2011 22:00 20,2 C 23,6 C 19,4 C 19,6 C 18,4 C 0,0 C 86 % 90 % 0 % 1013,1 hPa 0,0 l/m 0,0 km/h (0 Bft) N 0,00 h 0,0 UV-I 17,8 C 18,4 C 0,0 km/h (0 Bft)
21.08.2011 23:00 19,4 C 23,5 C 18,6 C 18,9 C 17,8 C 0,0 C 87 % 91 % 0 % 1012,9 hPa 0,0 l/m 0,0 km/h (0 Bft) N 0,00 h 0,0 UV-I 17,3 C 17,8 C 0,0 km/h (0 Bft)
Min-Datum _ 20.08.11 16.08.11 20.08.11 20.08.11 20.08.11 15.08.11 20.08.11 17.08.11 15.08.11 15.08.11 - 15.08.11 - - 15.08.11 20.08.11 20.08.11 15.08.11
_ Min-Zeit 06:15 09:45 05:55 06:15 06:20 00:00 17:25 15:20 00:00 00:00 - 03:25 - - 00:00 06:15 06:20 00:30
Minimum _ 11,8 C 20,6 C 10,8 C 10,8 C 8,8 C 0,0 C 49 % 44 % 0 % 1007,7 hPa - 0,0 km/h (0 Bft) - - 0,0 UV-I 9,7 C 8,8 C 0,0 km/h (0 Bft)
Max-Datum _ 18.08.11 18.08.11 18.08.11 18.08.11 18.08.11 18.08.11 19.08.11 19.08.11 15.08.11 20.08.11 19.08.11 19.08.11 - 19.08.11 18.08.11 21.08.11 18.08.11 19.08.11
_ Max-Zeit 16:10 20:55 15:30 15:20 15:20 09:20 07:45 15:45 08:00 12:45 13:45 17:55 - 17:11 12:30 18:15 15:20 19:10
Maximum _ 27,9 C 24,7 C 31,7 C 36,1 C 36,1 C 11,9 C 92 % 96 % 100 % 1023,2 hPa 11,0 l/m 9,8 km/h
W (2 Bft)
- 0,18 h 0,4 UV-I 20,7 C 36,1 C 24,8 km/h
N-NO (4 Bft)
Durchschnitt _ 18,8 C 22,2 C 18,4 C 20,6 C 20,1 C 2,2 C 79 % 83 % 40 % 1016,0 hPa #20,6 l/m 1,1 km/h (1 Bft) W-SW #55:30 h 0,1 UV-I 15,0 C 20,1 C 1,7 km/h (1 Bft)
2013 www.wetterstation-wechselburg.de